関東・中部TAF電文


百里(RJAH)
7/19 14h
TAF RJAH 190508Z 1906/2012 16006KT 9999 FEW020 BECMG 1912/1914
08004KT TEMPO 1914/1921 3000 BR FEW005 BKN008 BECMG
1921/2000 24005KT BECMG 2006/2009 10008KT TEMPO 2006/2012
4000 -TSRA BR FEW015 FEW020CB BKN030=

成田(RJAA)
7/19 14h
TAF RJAA 190505Z 1906/2012 19006KT 9999 FEW020 BECMG 1921/2000
27008KT TEMPO 2006/2009 -TSRA FEW015 FEW020CB BKN030 BECMG
2006/2009 11006KT=

羽田(RJTT)
7/19 14h
TAF RJTT 190505Z 1906/2012 19014KT 9999 FEW030=

新潟(RJSN)
7/19 14h
TAF RJSN 190508Z 1906/2012 02006KT 9999 FEW020 BKN040 BECMG
1915/1917 24008KT TEMPO 1918/1921 3000 SHRA BR=

富山(RJNT)
7/19 15h
TAF AMD RJNT 190611Z 1906/2012 36006KT 9999 -SHRA FEW020 BKN030
TEMPO 1906/1909 -TSRA FEW020 FEW020CB BKN030 TEMPO
1909/1914 4000 -TSRA BR FEW010 BKN020 FEW020CB BECMG
1912/1914 26008KT TEMPO 2006/2009 TS FEW020 FEW020CB
SCT030=

小松(RJNK)
7/19 14h
TAF RJNK 190509Z 1906/2012 28008KT 9999 FEW030 SCT060 TEMPO
1908/1912 3000 TSRA BR FEW005 BKN008 FEW020CB=

静岡(RJNS)
7/19 14h
TAF RJNS 190508Z 1906/2012 24012KT 9999 FEW008 BKN015 TEMPO
1911/1917 FEW003 BKN005 TEMPO 1917/1921 4000 -TSRA BR
FEW003 BKN005 FEW020CB=

中部国際(RJGG)
7/19 14h
TAF RJGG 190505Z 1906/2012 18008KT 9999 FEW020 TEMPO 1907/1911 TS
FEW015 FEW020CB SCT030 BECMG 2003/2006 32006KT TEMPO
2003/2009 -TSRA FEW015 FEW020CB BKN030=
Copyright(c) 2014 International Meteorological & Oceanographic Consultants Co,.Ltd. All Rights Reserved. Design by http://f-tpl.com